Time;durP1;ratioP1;P1;durP2;ratioP2;P2;SDS_P1;SDS_P2;PMS_P1;PMS_P2;Temp;Humidity;BMP_temperature;BMP_pressure;BME280_temperature;BME280_humidity;BME280_pressure;Samples;Min_cycle;Max_cycle;Signal;HPM_P1;HPM_P2
2021/08/25 00:00:51;;;;;;;2.23;2.03;;;;;23.10;101499.00;;;;2071057;28;20253;-68
2021/08/25 00:01:51;;;;;;;2.07;1.80;;;;;23.10;101500.00;;;;2071020;28;20210;-68
2021/08/25 00:02:52;;;;;;;2.50;1.90;;;;;23.20;101489.00;;;;2071000;28;20230;-67
2021/08/25 00:03:52;;;;;;;2.13;1.83;;;;;23.20;101489.00;;;;2071729;28;20249;-67
2021/08/25 00:04:54;;;;;;;2.90;2.23;;;;;23.10;101493.00;;;;2071278;28;20221;-68
2021/08/25 00:05:55;;;;;;;1.48;1.35;;;;;23.10;101493.00;;;;2071507;28;20201;-67
2021/08/25 00:06:55;;;;;;;2.13;1.90;;;;;23.20;101488.00;;;;2071620;28;20267;-67
2021/08/25 00:07:55;;;;;;;2.00;1.80;;;;;23.20;101494.00;;;;2071590;28;20589;-68
2021/08/25 00:08:57;;;;;;;2.13;1.73;;;;;23.10;101492.00;;;;2072987;28;20580;-68
2021/08/25 00:09:57;;;;;;;2.10;1.90;;;;;23.10;101493.00;;;;2070462;28;20692;-67
2021/08/25 00:10:58;;;;;;;2.00;1.77;;;;;23.10;101493.00;;;;2072535;28;20210;-69
2021/08/25 00:11:58;;;;;;;1.60;1.50;;;;;23.10;101496.00;;;;2072666;28;20332;-67
2021/08/25 00:13:00;;;;;;;1.83;1.60;;;;;23.10;101494.00;;;;2072837;28;20206;-68
2021/08/25 00:14:00;;;;;;;1.70;1.45;;;;;23.10;101496.00;;;;2072709;28;20226;-68
2021/08/25 00:15:01;;;;;;;2.03;1.67;;;;;23.10;101476.00;;;;2072481;28;20728;-67
2021/08/25 00:16:01;;;;;;;2.10;1.70;;;;;23.10;101490.00;;;;2071991;28;20389;-67
2021/08/25 00:17:01;;;;;;;2.00;1.80;;;;;23.10;101482.00;;;;2072065;28;20294;-67
2021/08/25 00:18:02;;;;;;;2.07;1.50;;;;;23.10;101491.00;;;;2072847;28;20218;-67
2021/08/25 00:19:02;;;;;;;2.00;1.80;;;;;23.10;101489.00;;;;2070685;28;20218;-69
2021/08/25 00:20:04;;;;;;;1.80;1.70;;;;;23.10;101483.00;;;;2072217;28;20297;-68
2021/08/25 00:21:04;;;;;;;1.85;1.65;;;;;23.10;101482.00;;;;2072663;28;20241;-67
2021/08/25 00:22:05;;;;;;;3.07;1.60;;;;;23.10;101482.00;;;;2072205;28;20218;-68
2021/08/25 00:23:05;;;;;;;1.80;1.57;;;;;23.10;101486.00;;;;2069822;28;20234;-67
2021/08/25 00:24:05;;;;;;;2.33;2.13;;;;;23.10;101481.00;;;;2071955;28;20259;-68
2021/08/25 00:25:06;;;;;;;2.27;1.97;;;;;23.10;101481.00;;;;2067281;28;20225;-68
2021/08/25 00:26:06;;;;;;;1.63;1.53;;;;;23.10;101477.00;;;;2072086;28;20735;-67
2021/08/25 00:27:07;;;;;;;1.97;1.80;;;;;23.10;101478.00;;;;2072060;28;20234;-68
2021/08/25 00:28:07;;;;;;;1.90;1.70;;;;;23.10;101482.00;;;;2072649;28;20218;-68
2021/08/25 00:29:07;;;;;;;1.40;1.20;;;;;23.10;101476.00;;;;2072264;28;20233;-68
2021/08/25 00:30:08;;;;;;;1.67;1.40;;;;;23.10;101480.00;;;;2071898;28;20749;-67
2021/08/25 00:31:08;;;;;;;2.63;2.03;;;;;23.10;101482.00;;;;2072471;28;20728;-68
2021/08/25 00:32:09;;;;;;;2.10;1.70;;;;;23.10;101471.00;;;;2072249;28;20221;-67
2021/08/25 00:33:09;;;;;;;2.00;1.70;;;;;23.10;101474.00;;;;2071738;28;20230;-67
2021/08/25 00:34:09;;;;;;;1.70;1.60;;;;;23.10;101485.00;;;;2072325;28;20252;-67
2021/08/25 00:35:11;;;;;;;1.87;1.67;;;;;23.10;101475.00;;;;2072609;28;20214;-68
2021/08/25 00:36:11;;;;;;;1.65;1.50;;;;;23.10;101477.00;;;;2072879;28;20561;-68
2021/08/25 00:37:12;;;;;;;2.13;1.87;;;;;23.10;101475.00;;;;2073060;28;20229;-67
2021/08/25 00:38:13;;;;;;;1.60;1.50;;;;;23.10;101472.00;;;;2072286;28;20313;-68
2021/08/25 00:39:13;;;;;;;2.17;1.97;;;;;23.10;101469.00;;;;2072432;28;20488;-68
2021/08/25 00:40:13;;;;;;;2.03;1.70;;;;;23.10;101466.00;;;;2073089;28;20214;-67
2021/08/25 00:41:13;;;;;;;1.90;1.33;;;;;23.10;101465.00;;;;2073061;28;20226;-68
2021/08/25 00:42:14;;;;;;;2.00;1.70;;;;;23.10;101471.00;;;;2072551;28;20214;-68
2021/08/25 00:43:14;;;;;;;2.00;1.80;;;;;23.10;101464.00;;;;2072565;28;20210;-68
2021/08/25 00:44:16;;;;;;;1.93;1.70;;;;;23.10;101462.00;;;;2072586;28;20218;-68
2021/08/25 00:45:16;;;;;;;2.25;2.05;;;;;23.10;101463.00;;;;2072609;28;20214;-68
2021/08/25 00:46:17;;;;;;;1.60;1.50;;;;;23.10;101463.00;;;;2072723;28;20580;-68
2021/08/25 00:47:17;;;;;;;2.10;1.90;;;;;23.10;101460.00;;;;2073100;28;20211;-68
2021/08/25 00:48:17;;;;;;;2.00;1.63;;;;;23.10;101462.00;;;;2072949;28;20218;-67
2021/08/25 00:49:19;;;;;;;1.53;1.43;;;;;23.10;101465.00;;;;2072740;28;20680;-68
2021/08/25 00:50:19;;;;;;;1.70;1.60;;;;;23.10;101461.00;;;;2072233;28;20293;-67
2021/08/25 00:51:21;;;;;;;2.40;1.90;;;;;23.10;101459.00;;;;2072341;28;20214;-69
2021/08/25 00:52:22;;;;;;;1.95;1.70;;;;;23.10;101460.00;;;;2068287;28;20315;-68
2021/08/25 00:53:22;;;;;;;2.17;1.83;;;;;23.10;101461.00;;;;2072099;28;20234;-68
2021/08/25 00:54:23;;;;;;;1.77;1.60;;;;;23.10;101456.00;;;;2072715;28;20225;-67
2021/08/25 00:55:23;;;;;;;2.73;1.90;;;;;23.10;101455.00;;;;2072498;28;20527;-68
2021/08/25 00:56:24;;;;;;;2.20;1.70;;;;;23.10;101458.00;;;;2072363;28;20210;-66
2021/08/25 00:57:24;;;;;;;2.07;1.87;;;;;23.10;101460.00;;;;2072125;28;20225;-67
2021/08/25 00:58:25;;;;;;;1.50;1.40;;;;;23.10;101452.00;;;;2071651;28;20222;-67
2021/08/25 00:59:26;;;;;;;2.50;1.90;;;;;23.10;101455.00;;;;2071477;28;20341;-68
2021/08/25 01:00:26;;;;;;;2.13;1.60;;;;;23.10;101454.00;;;;2070458;28;20274;-66
2021/08/25 01:01:32;;;;;;;1.70;1.43;;;;;23.10;101447.00;;;;2070450;28;20223;-68
2021/08/25 01:02:58;;;;;;;2.10;1.58;;;;;23.10;101452.00;;;;2072890;28;20330;-68
2021/08/25 01:04:01;;;;;;;2.00;1.80;;;;;23.00;101452.00;;;;2061596;28;20710;-68
2021/08/25 01:05:01;;;;;;;2.30;2.10;;;;;23.10;101440.00;;;;2071358;28;20640;-67
2021/08/25 01:06:02;;;;;;;2.20;1.70;;;;;23.10;101448.00;;;;2071516;28;20213;-67
2021/08/25 01:07:02;;;;;;;1.73;1.63;;;;;23.10;101451.00;;;;2055448;28;20215;-68
2021/08/25 01:08:03;;;;;;;1.97;1.77;;;;;23.10;101447.00;;;;2063710;28;20218;-67
2021/08/25 01:09:03;;;;;;;1.87;1.70;;;;;23.10;101455.00;;;;2071205;28;20301;-68
2021/08/25 01:10:25;;;;;;;2.10;1.77;;;;;23.10;101451.00;;;;2071789;28;20374;-68
2021/08/25 01:11:26;;;;;;;3.13;2.15;;;;;23.10;101449.00;;;;2065464;28;20219;-67
2021/08/25 01:12:26;;;;;;;2.20;1.77;;;;;23.10;101448.00;;;;2072259;28;20222;-68
2021/08/25 01:13:26;;;;;;;2.00;1.80;;;;;23.10;101450.00;;;;2072318;28;20225;-68
2021/08/25 01:14:28;;;;;;;1.87;1.63;;;;;23.10;101443.00;;;;2071731;28;20697;-67
2021/08/25 01:15:39;;;;;;;2.05;1.85;;;;;23.10;101448.00;;;;2071986;28;20312;-68
2021/08/25 01:16:39;;;;;;;1.92;1.55;;;;;23.10;101446.00;;;;2072320;28;20272;-67
2021/08/25 01:17:40;;;;;;;1.70;1.53;;;;;23.10;101451.00;;;;2071223;28;20222;-68
2021/08/25 01:18:40;;;;;;;1.83;1.60;;;;;23.10;101449.00;;;;2062423;28;20450;-68
2021/08/25 01:20:00;;;;;;;1.90;1.53;;;;;23.10;101447.00;;;;2050742;28;20222;-67
2021/08/25 01:21:00;;;;;;;2.75;1.77;;;;;23.00;101443.00;;;;2056880;28;20702;-67
2021/08/25 01:22:00;;;;;;;2.67;1.80;;;;;23.00;101446.00;;;;2071191;28;20210;-70
2021/08/25 01:23:01;;;;;;;1.90;1.70;;;;;23.10;101443.00;;;;2061223;28;20215;-68
2021/08/25 01:24:02;;;;;;;2.07;1.87;;;;;23.00;101445.00;;;;2059166;28;20225;-68
2021/08/25 01:25:03;;;;;;;1.77;1.67;;;;;23.10;101453.00;;;;2069792;28;20249;-68
2021/08/25 01:26:03;;;;;;;2.00;1.80;;;;;23.00;101449.00;;;;2071296;28;20457;-68
2021/08/25 01:27:04;;;;;;;1.73;1.63;;;;;23.00;101445.00;;;;2071792;28;20248;-68
2021/08/25 01:28:05;;;;;;;2.07;1.70;;;;;23.00;101447.00;;;;2072111;28;20293;-68
2021/08/25 01:29:11;;;;;;;1.95;1.70;;;;;23.00;101452.00;;;;2071033;28;20210;-68
2021/08/25 01:30:12;;;;;;;1.77;1.65;;;;;23.00;101436.00;;;;2062996;28;20211;-68
2021/08/25 01:31:12;;;;;;;1.80;1.67;;;;;23.00;101448.00;;;;2070731;28;20222;-68
2021/08/25 01:32:13;;;;;;;1.83;1.50;;;;;23.10;101449.00;;;;2071962;28;20214;-68
2021/08/25 01:33:24;;;;;;;1.80;1.70;;;;;23.00;101441.00;;;;2072136;28;20248;-68
2021/08/25 01:34:24;;;;;;;1.92;1.73;;;;;23.00;101441.00;;;;2071769;28;20218;-68
2021/08/25 01:35:36;;;;;;;2.27;2.03;;;;;23.00;101438.00;;;;2072203;28;20214;-68
2021/08/25 01:36:36;;;;;;;2.28;1.85;;;;;23.00;101440.00;;;;2071813;28;20206;-68
2021/08/25 01:37:37;;;;;;;1.70;1.60;;;;;23.10;101438.00;;;;2062664;28;20718;-68
2021/08/25 01:38:56;;;;;;;1.57;1.30;;;;;23.00;101444.00;;;;2043421;28;20841;-68
2021/08/25 01:39:56;;;;;;;2.20;1.80;;;;;23.00;101433.00;;;;2057667;28;20270;-68
2021/08/25 01:40:56;;;;;;;2.33;1.87;;;;;23.00;101442.00;;;;2071473;28;20230;-68
2021/08/25 01:41:57;;;;;;;1.93;1.73;;;;;23.00;101435.00;;;;2072071;28;20218;-68
2021/08/25 01:42:58;;;;;;;3.07;1.83;;;;;23.00;101435.00;;;;2072140;28;20218;-68
2021/08/25 01:43:59;;;;;;;2.10;1.90;;;;;23.00;101437.00;;;;2072140;28;20556;-68
2021/08/25 01:44:59;;;;;;;1.80;1.70;;;;;23.10;101432.00;;;;2072136;28;20246;-68
2021/08/25 01:46:00;;;;;;;2.13;1.93;;;;;23.00;101426.00;;;;2072494;28;20214;-68
2021/08/25 01:47:00;;;;;;;1.97;1.70;;;;;23.00;101427.00;;;;2072461;28;20221;-68
2021/08/25 01:48:00;;;;;;;1.97;1.43;;;;;23.00;101432.00;;;;2072694;28;20593;-68
2021/08/25 01:49:04;;;;;;;2.30;1.90;;;;;23.00;101433.00;;;;2072527;28;20558;-68
2021/08/25 01:50:04;;;;;;;2.05;1.70;;;;;23.00;101433.00;;;;2062593;28;20246;-68
2021/08/25 01:51:05;;;;;;;2.13;1.93;;;;;23.00;101435.00;;;;2056964;28;20691;-68
2021/08/25 01:52:05;;;;;;;2.20;2.00;;;;;23.00;101429.00;;;;2072024;28;20218;-68
2021/08/25 01:53:06;;;;;;;2.10;1.90;;;;;23.00;101429.00;;;;2072358;28;20210;-68
2021/08/25 01:54:06;;;;;;;2.07;1.80;;;;;23.00;101418.00;;;;2072622;28;20206;-68
2021/08/25 01:55:07;;;;;;;2.20;1.60;;;;;23.00;101427.00;;;;2072009;28;20213;-68
2021/08/25 01:56:07;;;;;;;2.23;2.03;;;;;23.00;101422.00;;;;2072141;28;20860;-68
2021/08/25 01:57:08;;;;;;;2.00;1.80;;;;;23.00;101412.00;;;;2071989;28;20225;-68
2021/08/25 01:58:08;;;;;;;2.43;1.80;;;;;23.00;101420.00;;;;2072289;28;20206;-68
2021/08/25 01:59:08;;;;;;;1.57;1.47;;;;;23.00;101423.00;;;;2071473;28;20234;-68
2021/08/25 02:00:09;;;;;;;1.60;1.50;;;;;23.00;101436.00;;;;2071700;28;20304;-68
2021/08/25 02:01:09;;;;;;;2.63;2.20;;;;;23.00;101425.00;;;;2071321;28;20214;-68
2021/08/25 02:02:11;;;;;;;2.10;1.90;;;;;23.00;101430.00;;;;2072338;28;20211;-68
2021/08/25 02:03:11;;;;;;;2.88;1.80;;;;;23.00;101424.00;;;;2072355;28;20206;-68
2021/08/25 02:04:12;;;;;;;2.30;2.00;;;;;23.00;101416.00;;;;2072188;28;20625;-68
2021/08/25 02:05:12;;;;;;;1.80;1.63;;;;;23.00;101423.00;;;;2071771;28;20751;-68
2021/08/25 02:06:12;;;;;;;1.83;1.63;;;;;23.00;101426.00;;;;2071712;28;20681;-68
2021/08/25 02:07:13;;;;;;;2.37;1.90;;;;;23.00;101428.00;;;;2071807;28;20312;-68
2021/08/25 02:08:13;;;;;;;2.90;1.77;;;;;23.00;101420.00;;;;2072411;28;20222;-68
2021/08/25 02:09:13;;;;;;;2.00;1.80;;;;;23.00;101422.00;;;;2072129;28;20213;-68
2021/08/25 02:10:14;;;;;;;2.23;1.70;;;;;23.00;101423.00;;;;2071736;28;20214;-68
2021/08/25 02:11:14;;;;;;;1.70;1.60;;;;;23.00;101420.00;;;;2071526;28;20202;-68
2021/08/25 02:12:15;;;;;;;1.60;1.50;;;;;23.00;101418.00;;;;2072263;28;20214;-68
2021/08/25 02:13:15;;;;;;;2.40;1.83;;;;;23.00;101418.00;;;;2072194;28;20206;-68
2021/08/25 02:14:15;;;;;;;1.80;1.70;;;;;23.00;101413.00;;;;2068578;28;20684;-68
2021/08/25 02:15:16;;;;;;;2.27;1.90;;;;;23.00;101413.00;;;;2072271;28;20443;-68
2021/08/25 02:16:16;;;;;;;2.43;1.73;;;;;23.00;101415.00;;;;2072355;28;20252;-68
2021/08/25 02:17:16;;;;;;;1.97;1.60;;;;;23.00;101415.00;;;;2072244;28;20222;-70
2021/08/25 02:18:17;;;;;;;1.83;1.73;;;;;23.00;101413.00;;;;2072361;28;20268;-68
2021/08/25 02:19:17;;;;;;;2.83;1.97;;;;;23.00;101408.00;;;;2072067;28;20226;-70
2021/08/25 02:20:18;;;;;;;1.97;1.63;;;;;23.00;101411.00;;;;2071928;28;20664;-68
2021/08/25 02:21:21;;;;;;;1.70;1.60;;;;;23.00;101415.00;;;;2072233;28;20596;-68
2021/08/25 02:22:21;;;;;;;1.73;1.60;;;;;23.00;101407.00;;;;2067685;28;20222;-68
2021/08/25 02:23:21;;;;;;;2.00;1.80;;;;;23.00;101406.00;;;;2071728;28;20226;-68
2021/08/25 02:24:22;;;;;;;2.30;2.00;;;;;23.00;101409.00;;;;2072244;28;20218;-68
2021/08/25 02:25:22;;;;;;;2.73;1.83;;;;;23.00;101401.00;;;;2072207;28;20222;-68
2021/08/25 02:26:22;;;;;;;1.83;1.70;;;;;23.00;101406.00;;;;2072207;28;20245;-70
2021/08/25 02:27:23;;;;;;;1.60;1.50;;;;;23.00;101407.00;;;;2072181;28;20218;-68
2021/08/25 02:28:23;;;;;;;1.53;1.43;;;;;23.00;101407.00;;;;2072194;28;20245;-68
2021/08/25 02:29:24;;;;;;;1.63;1.53;;;;;23.00;101412.00;;;;2072059;28;20272;-68
2021/08/25 02:30:24;;;;;;;1.93;1.73;;;;;23.00;101394.00;;;;2071966;28;20720;-68
2021/08/25 02:31:25;;;;;;;2.50;1.77;;;;;23.00;101399.00;;;;2070646;28;20749;-68
2021/08/25 02:32:26;;;;;;;2.05;1.73;;;;;23.00;101401.00;;;;2071424;28;20691;-68
2021/08/25 02:33:26;;;;;;;2.43;1.77;;;;;23.00;101399.00;;;;2072003;28;20240;-68
2021/08/25 02:34:26;;;;;;;1.70;1.60;;;;;23.00;101397.00;;;;2072233;28;20288;-68
2021/08/25 02:35:27;;;;;;;2.30;1.70;;;;;23.00;101391.00;;;;2071847;28;20229;-68
2021/08/25 02:36:27;;;;;;;1.70;1.60;;;;;23.00;101390.00;;;;2072237;28;20218;-68
2021/08/25 02:37:27;;;;;;;2.00;1.80;;;;;23.00;101395.00;;;;2072148;28;20222;-68
2021/08/25 02:38:27;;;;;;;2.13;1.70;;;;;23.00;101392.00;;;;2072040;28;20214;-68
2021/08/25 02:39:28;;;;;;;2.50;1.90;;;;;23.00;101388.00;;;;2071936;28;20295;-68
2021/08/25 02:40:28;;;;;;;2.00;1.50;;;;;23.00;101386.00;;;;2069213;28;20214;-68
2021/08/25 02:41:28;;;;;;;2.10;1.90;;;;;23.00;101388.00;;;;2071953;28;20226;-68
2021/08/25 02:42:29;;;;;;;1.70;1.60;;;;;23.00;101388.00;;;;2072213;28;20244;-68
2021/08/25 02:43:29;;;;;;;2.17;1.90;;;;;23.00;101385.00;;;;2071305;28;20230;-68
2021/08/25 02:44:29;;;;;;;1.73;1.50;;;;;23.00;101390.00;;;;2070882;28;20225;-68
2021/08/25 02:45:30;;;;;;;2.10;1.93;;;;;23.00;101389.00;;;;2068600;28;20242;-68
2021/08/25 02:46:30;;;;;;;1.60;1.43;;;;;23.00;101390.00;;;;2072151;28;20214;-68
2021/08/25 02:47:30;;;;;;;2.20;1.73;;;;;23.00;101387.00;;;;2072219;28;20214;-68
2021/08/25 02:48:31;;;;;;;2.30;1.97;;;;;23.00;101389.00;;;;2072069;28;20220;-68
2021/08/25 02:49:31;;;;;;;2.37;1.83;;;;;23.00;101391.00;;;;2071821;28;20681;-69
2021/08/25 02:50:31;;;;;;;2.17;1.80;;;;;23.00;101391.00;;;;2071552;28;20280;-68
2021/08/25 02:51:32;;;;;;;1.83;1.70;;;;;23.00;101388.00;;;;2072051;28;20233;-68
2021/08/25 02:52:32;;;;;;;1.90;1.70;;;;;23.00;101392.00;;;;2071960;28;20214;-68
2021/08/25 02:53:32;;;;;;;2.30;1.80;;;;;23.00;101395.00;;;;2071955;28;20226;-68
2021/08/25 02:54:33;;;;;;;2.07;1.80;;;;;23.00;101391.00;;;;2071855;28;20245;-68
2021/08/25 02:55:33;;;;;;;2.23;1.80;;;;;23.00;101392.00;;;;2069765;28;20241;-68
2021/08/25 02:56:33;;;;;;;2.03;1.83;;;;;23.00;101392.00;;;;2072087;28;20272;-68
2021/08/25 02:57:34;;;;;;;2.03;1.63;;;;;23.00;101393.00;;;;2071583;28;20824;-68
2021/08/25 02:58:34;;;;;;;1.97;1.73;;;;;23.00;101390.00;;;;2071202;28;20214;-68
2021/08/25 02:59:34;;;;;;;2.00;1.80;;;;;23.00;101390.00;;;;2070986;28;20221;-68
2021/08/25 03:00:35;;;;;;;2.00;1.80;;;;;23.00;101387.00;;;;2071323;28;20218;-68
2021/08/25 03:01:35;;;;;;;1.97;1.77;;;;;23.00;101386.00;;;;2071915;28;20223;-68
2021/08/25 03:02:35;;;;;;;2.50;1.50;;;;;23.00;101388.00;;;;2071979;28;20272;-68
2021/08/25 03:03:36;;;;;;;2.00;1.77;;;;;23.00;101390.00;;;;2071864;28;20256;-68
2021/08/25 03:04:36;;;;;;;2.10;1.70;;;;;23.00;101382.00;;;;2071946;28;20216;-68
2021/08/25 03:05:36;;;;;;;2.37;2.03;;;;;23.00;101385.00;;;;2071959;28;20221;-68
2021/08/25 03:06:36;;;;;;;2.60;1.90;;;;;23.00;101378.00;;;;2071904;28;20230;-68
2021/08/25 03:07:37;;;;;;;2.03;1.40;;;;;23.00;101378.00;;;;2071905;28;20220;-68
2021/08/25 03:08:37;;;;;;;2.50;1.90;;;;;23.00;101371.00;;;;2071439;28;20218;-68
2021/08/25 03:09:38;;;;;;;2.03;1.80;;;;;23.00;101379.00;;;;2071692;28;20272;-68
2021/08/25 03:10:38;;;;;;;1.80;1.70;;;;;23.00;101371.00;;;;2071910;28;20742;-68
2021/08/25 03:11:39;;;;;;;2.70;2.23;;;;;23.00;101370.00;;;;2071171;28;20214;-68
2021/08/25 03:12:39;;;;;;;1.73;1.60;;;;;23.00;101376.00;;;;2071213;28;20214;-68
2021/08/25 03:13:40;;;;;;;1.33;1.23;;;;;23.00;101378.00;;;;2071708;28;20210;-68
2021/08/25 03:14:41;;;;;;;2.30;1.83;;;;;23.00;101369.00;;;;2071083;28;20312;-68
2021/08/25 03:15:41;;;;;;;1.60;1.38;;;;;23.00;101365.00;;;;2070948;28;20237;-68
2021/08/25 03:16:42;;;;;;;2.10;1.90;;;;;23.00;101363.00;;;;2071663;28;20206;-68
2021/08/25 03:17:42;;;;;;;1.73;1.50;;;;;23.00;101371.00;;;;2072100;28;20937;-68
2021/08/25 03:18:43;;;;;;;2.00;1.70;;;;;23.00;101370.00;;;;2071821;28;21014;-68
2021/08/25 03:19:43;;;;;;;1.80;1.70;;;;;23.00;101364.00;;;;2071795;28;20468;-68
2021/08/25 03:20:43;;;;;;;2.00;1.80;;;;;23.00;101358.00;;;;2071937;28;20206;-68
2021/08/25 03:21:44;;;;;;;1.90;1.63;;;;;23.00;101360.00;;;;2071968;28;20214;-67
2021/08/25 03:22:44;;;;;;;2.30;1.93;;;;;23.00;101362.00;;;;2071841;28;20276;-69
2021/08/25 03:23:44;;;;;;;1.97;1.77;;;;;23.00;101362.00;;;;2071292;28;20219;-68
2021/08/25 03:24:45;;;;;;;2.40;2.07;;;;;23.00;101356.00;;;;2071295;28;20210;-68
2021/08/25 03:25:45;;;;;;;1.70;1.60;;;;;23.00;101363.00;;;;2071561;28;20289;-68
2021/08/25 03:26:45;;;;;;;1.87;1.43;;;;;23.00;101352.00;;;;2071039;28;20206;-68
2021/08/25 03:27:46;;;;;;;1.40;1.30;;;;;23.00;101352.00;;;;2069157;28;20210;-68
2021/08/25 03:28:46;;;;;;;1.73;1.60;;;;;23.00;101356.00;;;;2070744;28;20219;-68
2021/08/25 03:29:46;;;;;;;2.10;1.90;;;;;23.00;101358.00;;;;2071190;28;20225;-68
2021/08/25 03:30:47;;;;;;;1.70;1.50;;;;;23.00;101358.00;;;;2069668;28;20584;-68
2021/08/25 03:31:47;;;;;;;2.43;1.70;;;;;23.00;101362.00;;;;2070579;28;20222;-68
2021/08/25 03:32:47;;;;;;;2.30;1.70;;;;;23.00;101350.00;;;;2071370;28;20218;-68
2021/08/25 03:33:48;;;;;;;2.20;1.80;;;;;23.00;101359.00;;;;2070752;28;20751;-68
2021/08/25 03:34:48;;;;;;;1.77;1.43;;;;;23.00;101359.00;;;;2060833;28;20584;-68
2021/08/25 03:35:49;;;;;;;2.23;2.03;;;;;23.00;101361.00;;;;2059695;28;20254;-68
2021/08/25 03:36:49;;;;;;;1.90;1.70;;;;;23.00;101368.00;;;;2070503;28;20214;-68
2021/08/25 03:37:49;;;;;;;1.83;1.70;;;;;23.00;101350.00;;;;2071653;28;20263;-68
2021/08/25 03:38:50;;;;;;;2.03;1.70;;;;;23.00;101359.00;;;;2071343;28;20680;-68
2021/08/25 03:39:50;;;;;;;1.90;1.70;;;;;23.00;101356.00;;;;2071032;28;20735;-68
2021/08/25 03:40:50;;;;;;;1.40;1.23;;;;;22.90;101357.00;;;;2070926;28;20210;-68
2021/08/25 03:41:51;;;;;;;1.80;1.67;;;;;23.00;101356.00;;;;2071219;28;20267;-68
2021/08/25 03:42:51;;;;;;;1.70;1.60;;;;;23.00;101352.00;;;;2072518;28;20260;-68
2021/08/25 03:43:51;;;;;;;1.80;1.50;;;;;23.00;101360.00;;;;2073400;28;20236;-68
2021/08/25 03:44:52;;;;;;;1.70;1.50;;;;;23.00;101355.00;;;;2072507;28;20206;-68
2021/08/25 03:45:52;;;;;;;1.87;1.73;;;;;23.00;101349.00;;;;2072721;28;20221;-68
2021/08/25 03:46:52;;;;;;;2.00;1.70;;;;;23.00;101348.00;;;;2073369;28;20248;-68
2021/08/25 03:47:53;;;;;;;1.90;1.70;;;;;23.00;101349.00;;;;2073252;28;20213;-68
2021/08/25 03:48:53;;;;;;;1.57;1.47;;;;;23.00;101347.00;;;;2073239;28;20677;-68
2021/08/25 03:49:54;;;;;;;1.60;1.50;;;;;22.90;101340.00;;;;2072898;28;20584;-68
2021/08/25 03:50:54;;;;;;;2.07;1.60;;;;;22.90;101342.00;;;;2073349;28;20260;-69
2021/08/25 03:51:54;;;;;;;2.00;1.70;;;;;22.90;101337.00;;;;2073313;28;20213;-69
2021/08/25 03:52:55;;;;;;;1.73;1.57;;;;;23.00;101340.00;;;;2073296;28;20234;-68
2021/08/25 03:53:55;;;;;;;2.17;1.90;;;;;22.90;101338.00;;;;2072485;28;20286;-68
2021/08/25 03:54:55;;;;;;;1.97;1.77;;;;;22.90;101339.00;;;;2072473;28;20732;-68
2021/08/25 03:55:56;;;;;;;1.60;1.40;;;;;23.00;101348.00;;;;2072357;28;20667;-68
2021/08/25 03:56:56;;;;;;;1.80;1.70;;;;;22.90;101338.00;;;;2073205;28;20784;-69
2021/08/25 03:57:56;;;;;;;1.63;1.53;;;;;22.90;101346.00;;;;2073187;28;20214;-68
2021/08/25 03:58:57;;;;;;;2.00;1.70;;;;;22.90;101339.00;;;;2073019;28;20194;-68
2021/08/25 03:59:57;;;;;;;2.77;1.73;;;;;22.90;101337.00;;;;2073169;28;20201;-68
2021/08/25 04:00:57;;;;;;;1.80;1.60;;;;;23.00;101332.00;;;;2072272;28;20202;-68
2021/08/25 04:01:58;;;;;;;1.40;1.30;;;;;23.00;101330.00;;;;2072517;28;20730;-68
2021/08/25 04:02:58;;;;;;;1.33;1.23;;;;;23.00;101336.00;;;;2073231;28;20557;-69
2021/08/25 04:04:05;;;;;;;1.80;1.60;;;;;23.00;101333.00;;;;2073277;28;20593;-69
2021/08/25 04:05:05;;;;;;;1.70;1.60;;;;;23.00;101346.00;;;;2073300;28;20206;-69
2021/08/25 04:06:06;;;;;;;2.00;1.67;;;;;23.00;101341.00;;;;2073232;28;20341;-68
2021/08/25 04:07:06;;;;;;;1.60;1.50;;;;;23.00;101331.00;;;;2073251;28;20819;-68
2021/08/25 04:08:07;;;;;;;2.13;1.70;;;;;23.00;101336.00;;;;2073210;28;20352;-69
2021/08/25 04:09:07;;;;;;;2.37;1.70;;;;;22.90;101344.00;;;;2072317;28;20220;-69
2021/08/25 04:10:07;;;;;;;2.07;1.60;;;;;22.90;101340.00;;;;2072966;28;20218;-69
2021/08/25 04:11:08;;;;;;;1.90;1.70;;;;;22.90;101344.00;;;;2073094;28;20232;-69
2021/08/25 04:12:08;;;;;;;1.63;1.40;;;;;22.90;101338.00;;;;2073147;28;20680;-69
2021/08/25 04:13:09;;;;;;;1.80;1.70;;;;;23.00;101340.00;;;;2073188;28;20619;-68
2021/08/25 04:14:09;;;;;;;1.53;1.43;;;;;23.00;101335.00;;;;2073113;28;20669;-69
2021/08/25 04:15:09;;;;;;;1.90;1.60;;;;;22.90;101332.00;;;;2072259;28;20218;-69
2021/08/25 04:16:10;;;;;;;1.70;1.60;;;;;22.90;101341.00;;;;2072213;28;20222;-69
2021/08/25 04:17:10;;;;;;;1.70;1.60;;;;;22.90;101344.00;;;;2073057;28;20293;-68
2021/08/25 04:18:10;;;;;;;1.90;1.63;;;;;22.90;101341.00;;;;2072505;28;20210;-69
2021/08/25 04:19:11;;;;;;;2.20;1.87;;;;;22.90;101346.00;;;;2070274;28;20218;-69
2021/08/25 04:20:12;;;;;;;1.60;1.50;;;;;22.90;101342.00;;;;2072745;28;20253;-69
2021/08/25 04:21:12;;;;;;;2.17;1.80;;;;;22.90;101338.00;;;;2072602;28;20222;-69
2021/08/25 04:22:12;;;;;;;1.87;1.67;;;;;22.90;101343.00;;;;2072531;28;20518;-68
2021/08/25 04:23:13;;;;;;;1.83;1.60;;;;;22.90;101345.00;;;;2071310;28;20218;-68
2021/08/25 04:24:13;;;;;;;2.53;1.70;;;;;22.90;101346.00;;;;2064288;28;20246;-69
2021/08/25 04:25:13;;;;;;;1.93;1.77;;;;;22.90;101327.00;;;;2064320;28;20301;-68
2021/08/25 04:26:14;;;;;;;1.70;1.60;;;;;22.90;101334.00;;;;2071996;28;20218;-69
2021/08/25 04:27:14;;;;;;;1.73;1.60;;;;;22.90;101342.00;;;;2072325;28;20237;-70
2021/08/25 04:28:14;;;;;;;1.93;1.73;;;;;22.90;101338.00;;;;2072411;28;20222;-68
2021/08/25 04:29:15;;;;;;;1.93;1.70;;;;;22.90;101339.00;;;;2072868;28;20229;-69
2021/08/25 04:30:15;;;;;;;2.10;1.90;;;;;22.90;101334.00;;;;2073001;28;20257;-69
2021/08/25 04:31:15;;;;;;;2.27;1.70;;;;;22.90;101332.00;;;;2072676;28;20214;-69
2021/08/25 04:32:16;;;;;;;1.90;1.70;;;;;22.90;101337.00;;;;2072418;28;20225;-69
2021/08/25 04:33:16;;;;;;;1.70;1.50;;;;;22.90;101338.00;;;;2073117;28;20234;-69
2021/08/25 04:34:17;;;;;;;2.00;1.80;;;;;22.90;101330.00;;;;2073016;28;20219;-68
2021/08/25 04:35:17;;;;;;;2.03;1.70;;;;;22.90;101335.00;;;;2070300;28;20218;-69
2021/08/25 04:36:17;;;;;;;1.33;1.23;;;;;22.90;101328.00;;;;2070424;28;20218;-68
2021/08/25 04:37:18;;;;;;;2.03;1.40;;;;;22.90;101330.00;;;;2068056;28;20960;-69
2021/08/25 04:38:18;;;;;;;2.10;1.47;;;;;22.90;101331.00;;;;2071463;28;20218;-70
2021/08/25 04:39:19;;;;;;;1.60;1.50;;;;;22.90;101326.00;;;;2072807;28;20222;-69
2021/08/25 04:40:19;;;;;;;1.70;1.40;;;;;22.90;101324.00;;;;2072949;28;20229;-69
2021/08/25 04:41:19;;;;;;;2.07;1.87;;;;;22.90;101342.00;;;;2072668;28;20693;-68
2021/08/25 04:42:20;;;;;;;1.90;1.70;;;;;22.90;101332.00;;;;2072832;28;20218;-68
2021/08/25 04:43:20;;;;;;;1.57;1.47;;;;;22.90;101327.00;;;;2072904;28;20214;-69
2021/08/25 04:44:20;;;;;;;1.63;1.53;;;;;22.90;101342.00;;;;2072891;28;20218;-68
2021/08/25 04:45:21;;;;;;;2.33;1.90;;;;;22.90;101331.00;;;;2072832;28;20233;-69
2021/08/25 04:46:21;;;;;;;1.70;1.60;;;;;22.90;101331.00;;;;2072986;28;20229;-68
2021/08/25 04:47:21;;;;;;;2.60;1.53;;;;;22.90;101331.00;;;;2072872;28;20246;-68
2021/08/25 04:48:22;;;;;;;1.57;1.37;;;;;22.90;101327.00;;;;2072925;28;20224;-70
2021/08/25 04:49:22;;;;;;;1.97;1.87;;;;;22.90;101330.00;;;;2072601;28;20234;-69
2021/08/25 04:50:22;;;;;;;1.93;1.70;;;;;22.90;101325.00;;;;2072902;28;20600;-69
2021/08/25 04:51:23;;;;;;;1.60;1.50;;;;;22.90;101320.00;;;;2072908;28;20603;-69
2021/08/25 04:52:23;;;;;;;1.93;1.73;;;;;22.90;101323.00;;;;2072178;28;20230;-68
2021/08/25 04:53:23;;;;;;;2.20;2.00;;;;;22.90;101330.00;;;;2062277;28;20230;-69
2021/08/25 04:54:24;;;;;;;1.67;1.57;;;;;22.90;101334.00;;;;2067119;28;20253;-68
2021/08/25 04:55:24;;;;;;;2.10;1.73;;;;;22.90;101329.00;;;;2070880;28;20218;-68
2021/08/25 04:56:24;;;;;;;1.97;1.70;;;;;22.90;101331.00;;;;2072430;28;20715;-68
2021/08/25 04:57:25;;;;;;;1.63;1.53;;;;;22.90;101330.00;;;;2072857;28;20673;-68
2021/08/25 04:58:25;;;;;;;1.70;1.40;;;;;22.90;101328.00;;;;2072911;28;20685;-68
2021/08/25 04:59:25;;;;;;;1.63;1.53;;;;;22.90;101327.00;;;;2072717;28;20689;-69
2021/08/25 05:00:26;;;;;;;1.70;1.60;;;;;22.90;101325.00;;;;2072715;28;20634;-69
2021/08/25 05:01:26;;;;;;;2.10;1.53;;;;;22.90;101329.00;;;;2072486;28;20688;-69